Vologda, Russia
Current Conditions -  °F | °C
As of 8:00 AM on Sunday 23 Nov 2014 (Local Time) from ULWC Reporting Station
Moderate Fog Moderate Fog  
Wind Chill: 28°   Ceiling: 200
Heat Index: 28°   Visibility: 0.43mi
Dew Point: 28°   Wind: 0mph
Humidity: 100%   Direction: NA
Pressure: 30.42"   Gusts: NA
Location:  59.22°N, 39.9°E
Report Text: ULWC 230500Z 00000MPS 0700 FZFG VV002 M02/M02 Q1030 NOSIG RMKQBB060 QFE762/1016 SC057
Loading
Personal Weather Stations






























Interactive Weather Map New forecast layout! Learn more

10-Day Weather Forecast

Advertisements
Track Severe Weather on mobile